Terminal Aerodrome Forecast
Issued by NWS

Home | Current Version | Previous Version | Text Only | Print | Product List | Glossary On
Versions: 1 2 3 4 5 6 7 8 9 10 11 12
000
FTUS44 KOUN 240525
TAFHBR
TAF
KHBR 240525Z 2406/2506 19026G36KT P6SM BKN070
      TEMPO 2407/2409 VRB40KT 5SM -TSRA BKN050CB
     FM241800 22025G33KT P6SM BKN250
     FM242100 26028G36KT P6SM OVC050
     FM250000 31016G23KT P6SM OVC100
     FM250300 33022G28KT P6SM OVC050=

USA.gov is the U.S. government's official web portal to all federal, state and local government web resources and services.